createdAt,value
2019-02-23T00:02:23.727Z,24.00
2019-02-23T00:04:52.148Z,23.23
2019-02-23T00:07:20.565Z,23.00
2019-02-23T00:09:49.242Z,23.70
2019-02-23T00:12:17.926Z,20.70
2019-02-23T00:14:46.325Z,23.50
2019-02-23T00:17:14.846Z,21.27
2019-02-23T00:19:43.220Z,22.63
2019-02-23T00:22:11.598Z,20.37
2019-02-23T00:24:40.227Z,20.40
2019-02-23T00:27:08.947Z,20.37
2019-02-23T00:29:37.329Z,21.50
2019-02-23T00:32:05.931Z,21.03
2019-02-23T00:34:34.594Z,21.50
2019-02-23T00:37:02.987Z,20.93
2019-02-23T00:39:31.445Z,21.33
2019-02-23T00:41:59.930Z,20.50
2019-02-23T00:44:28.695Z,20.80
2019-02-23T00:46:57.096Z,20.63
2019-02-23T00:49:35.929Z,20.33
2019-02-23T00:51:55.803Z,20.90
2019-02-23T00:54:24.211Z,20.77
2019-02-23T00:56:52.619Z,19.47
2019-02-23T00:59:21.455Z,20.73
2019-02-23T01:01:49.845Z,20.70
2019-02-23T01:04:18.235Z,19.57
2019-02-23T01:06:46.900Z,21.83
2019-02-23T01:09:15.373Z,19.17
2019-02-23T01:11:44.040Z,20.87
2019-02-23T01:14:12.442Z,21.50
2019-02-23T01:16:41.108Z,21.73
2019-02-23T01:19:09.619Z,21.43
2019-02-23T01:21:38.010Z,22.70
2019-02-23T01:24:06.503Z,22.07
2019-02-23T01:26:34.892Z,21.57
2019-02-23T01:29:03.608Z,22.63
2019-02-23T01:31:32.004Z,21.83
2019-02-23T01:34:00.806Z,22.77
2019-02-23T01:36:29.200Z,22.20
2019-02-23T01:38:57.667Z,22.57
2019-02-23T01:41:26.148Z,22.73
2019-02-23T01:43:54.541Z,21.30
2019-02-23T01:46:22.961Z,23.20
2019-02-23T01:48:51.368Z,22.17
2019-02-23T01:51:19.751Z,22.63
2019-02-23T01:53:48.454Z,22.90
2019-02-23T01:56:16.894Z,21.83
2019-02-23T01:58:45.589Z,23.23
2019-02-23T02:01:13.992Z,24.33
2019-02-23T02:03:42.386Z,24.60
2019-02-23T02:06:10.778Z,23.57
2019-02-23T02:08:39.190Z,22.57
2019-02-23T02:11:08.001Z,22.87
2019-02-23T02:13:36.392Z,23.30
2019-02-23T02:16:05.172Z,23.77
2019-02-23T02:18:33.578Z,22.90
2019-02-23T02:21:01.939Z,24.43
2019-02-23T02:23:30.611Z,23.03
2019-02-23T02:25:58.996Z,24.93
2019-02-23T02:28:27.378Z,24.77
2019-02-23T02:30:55.786Z,24.97
2019-02-23T02:33:24.313Z,25.10
2019-02-23T02:35:52.703Z,25.97
2019-02-23T02:38:21.101Z,25.63
2019-02-23T02:40:49.501Z,25.17
2019-02-23T02:43:17.887Z,26.60
2019-02-23T02:45:46.301Z,23.77
2019-02-23T02:48:15.017Z,25.07
2019-02-23T02:50:43.734Z,27.80
2019-02-23T02:53:12.131Z,25.90
2019-02-23T02:55:40.763Z,25.87
2019-02-23T02:58:09.174Z,25.93
2019-02-23T03:00:37.636Z,25.37
2019-02-23T03:03:06.056Z,24.63
2019-02-23T03:05:34.458Z,25.40
2019-02-23T03:08:02.851Z,24.47
2019-02-23T03:10:31.351Z,25.57
2019-02-23T03:12:59.735Z,24.73
2019-02-23T03:15:28.258Z,26.00
2019-02-23T03:17:56.725Z,27.07
2019-02-23T03:20:36.255Z,25.90
2019-02-23T03:22:55.853Z,26.77
2019-02-23T03:25:24.258Z,26.30
2019-02-23T03:27:52.690Z,25.60
2019-02-23T03:30:21.351Z,26.83
2019-02-23T03:32:49.785Z,26.10
2019-02-23T03:35:18.230Z,28.00
2019-02-23T03:37:46.631Z,25.33
2019-02-23T03:40:15.029Z,27.07
2019-02-23T03:42:43.436Z,27.00
2019-02-23T03:45:11.967Z,25.60
2019-02-23T03:47:40.362Z,26.77
2019-02-23T03:50:08.833Z,27.23
2019-02-23T03:52:37.401Z,28.63
2019-02-23T03:55:06.258Z,26.53
2019-02-23T03:57:34.661Z,28.13
2019-02-23T04:00:03.401Z,28.53
2019-02-23T04:02:32.135Z,26.87
2019-02-23T04:05:00.608Z,26.77
2019-02-23T04:07:29.069Z,26.43
2019-02-23T04:09:57.801Z,27.57
2019-02-23T04:12:26.185Z,28.20
2019-02-23T04:14:54.659Z,27.77
2019-02-23T04:17:23.694Z,28.97
2019-02-23T04:19:52.088Z,30.97
2019-02-23T04:22:20.586Z,29.07
2019-02-23T04:24:49.286Z,28.33
2019-02-23T04:27:17.677Z,30.10
2019-02-23T04:29:47.001Z,29.00
2019-02-23T04:32:15.541Z,27.87
2019-02-23T04:34:43.930Z,30.40
2019-02-23T04:37:12.323Z,29.00
2019-02-23T04:39:41.021Z,28.07
2019-02-23T04:42:09.450Z,29.50
2019-02-23T04:44:37.827Z,28.93
2019-02-23T04:47:06.231Z,28.50
2019-02-23T04:49:34.612Z,28.50
2019-02-23T04:52:03.017Z,25.70
2019-02-23T04:54:34.446Z,26.47
2019-02-23T04:57:02.970Z,29.60
2019-02-23T04:59:31.329Z,28.70
2019-02-23T05:01:59.784Z,29.77
2019-02-23T05:04:28.189Z,29.00
2019-02-23T05:06:56.603Z,28.03
2019-02-23T05:09:25.031Z,28.80
2019-02-23T05:11:53.443Z,28.63
2019-02-23T05:14:21.833Z,26.40
2019-02-23T05:16:50.223Z,26.27
2019-02-23T05:19:18.653Z,24.83
2019-02-23T05:21:47.028Z,26.17
2019-02-23T05:24:15.722Z,26.00
2019-02-23T05:26:44.107Z,25.70
2019-02-23T05:29:12.738Z,25.40
2019-02-23T05:31:41.451Z,24.67
2019-02-23T05:34:10.059Z,25.43
2019-02-23T05:36:38.441Z,26.20
2019-02-23T05:39:07.644Z,24.37
2019-02-23T05:41:36.045Z,25.50
2019-02-23T05:44:04.480Z,24.17
2019-02-23T05:46:32.875Z,24.87
2019-02-23T05:49:01.719Z,24.53
2019-02-23T05:51:38.315Z,25.50
2019-02-23T05:54:00.232Z,26.47
2019-02-23T05:56:28.645Z,27.43
2019-02-23T05:58:57.308Z,25.77
2019-02-23T06:01:25.993Z,23.73
2019-02-23T06:03:54.387Z,24.53
2019-02-23T06:06:22.979Z,28.17
2019-02-23T06:08:51.364Z,25.67
2019-02-23T06:11:19.787Z,22.70
2019-02-23T06:13:48.170Z,25.10
2019-02-23T06:16:16.839Z,25.20
2019-02-23T06:18:45.232Z,25.20
2019-02-23T06:21:13.612Z,24.40
2019-02-23T06:23:42.143Z,24.80
2019-02-23T06:26:10.629Z,25.27
2019-02-23T06:28:39.282Z,25.60
2019-02-23T06:31:07.683Z,23.63
2019-02-23T06:33:36.082Z,24.77
2019-02-23T06:36:04.480Z,29.87
2019-02-23T06:38:33.226Z,26.10
2019-02-23T06:41:01.678Z,27.20
2019-02-23T06:43:30.185Z,26.50
2019-02-23T06:45:58.581Z,28.90
2019-02-23T06:48:26.973Z,26.57
2019-02-23T06:50:55.355Z,25.63
2019-02-23T06:53:23.806Z,24.37
2019-02-23T06:55:52.213Z,22.47
2019-02-23T06:58:20.671Z,24.73
2019-02-23T07:00:49.078Z,24.87
2019-02-23T07:03:17.471Z,21.00
2019-02-23T07:05:45.882Z,24.70
2019-02-23T07:08:14.282Z,20.50
2019-02-23T07:10:42.868Z,24.43
2019-02-23T07:13:11.270Z,22.60
2019-02-23T07:15:39.647Z,26.70
2019-02-23T07:18:08.039Z,23.53
2019-02-23T07:20:43.682Z,25.67
2019-02-23T07:23:06.927Z,23.47
2019-02-23T07:25:35.579Z,26.73
2019-02-23T07:28:03.967Z,27.33
2019-02-23T07:30:32.604Z,24.60
2019-02-23T07:33:01.049Z,25.60
2019-02-23T07:35:29.712Z,21.90
2019-02-23T07:37:58.166Z,22.03
2019-02-23T07:40:26.556Z,31.33
2019-02-23T07:42:54.969Z,23.67
2019-02-23T07:45:23.358Z,25.60
2019-02-23T07:47:51.737Z,25.17
2019-02-23T07:50:20.756Z,26.90
2019-02-23T07:52:49.156Z,23.50
2019-02-23T07:55:17.544Z,26.07
2019-02-23T07:57:45.950Z,25.97
2019-02-23T08:00:15.102Z,25.40
2019-02-23T08:02:43.488Z,26.40
2019-02-23T08:05:11.998Z,23.07
2019-02-23T08:07:40.413Z,24.63
2019-02-23T08:10:11.127Z,27.13
2019-02-23T08:12:39.761Z,23.77
2019-02-23T08:15:10.677Z,22.20
2019-02-23T08:17:39.083Z,25.93
2019-02-23T08:20:13.234Z,24.27
2019-02-23T08:22:41.639Z,24.53
2019-02-23T08:25:12.240Z,26.43
2019-02-23T08:27:40.626Z,24.50
2019-02-23T08:30:14.081Z,25.87
2019-02-23T08:32:42.697Z,24.23
2019-02-23T08:35:11.155Z,26.30
2019-02-23T08:37:39.652Z,25.60
2019-02-23T08:40:18.816Z,25.53
2019-02-23T08:42:47.486Z,27.30
2019-02-23T08:45:16.180Z,24.07
2019-02-23T08:47:44.587Z,25.97
2019-02-23T08:50:16.352Z,25.67
2019-02-23T08:52:49.294Z,27.17
2019-02-23T08:55:15.090Z,26.03
2019-02-23T08:57:43.802Z,22.43
2019-02-23T09:00:17.102Z,23.83
2019-02-23T09:02:45.774Z,22.97
2019-02-23T09:05:14.860Z,23.27
2019-02-23T09:07:43.264Z,22.23
2019-02-23T09:10:13.865Z,23.03
2019-02-23T09:12:42.570Z,22.60
2019-02-23T09:15:12.193Z,23.00
2019-02-23T09:17:40.866Z,25.70
2019-02-23T09:20:11.121Z,23.00
2019-02-23T09:22:39.706Z,22.83
2019-02-23T09:25:11.658Z,22.20
2019-02-23T09:27:40.054Z,21.80
2019-02-23T09:30:14.059Z,23.20
2019-02-23T09:32:42.456Z,22.73
2019-02-23T09:35:12.726Z,20.37
2019-02-23T09:37:41.758Z,23.33
2019-02-23T09:40:12.920Z,18.27
2019-02-23T09:42:41.569Z,21.43
2019-02-23T09:45:12.076Z,21.87
2019-02-23T09:47:41.023Z,23.07
2019-02-23T09:50:09.448Z,20.97
2019-02-23T09:52:38.494Z,21.67
2019-02-23T09:55:08.370Z,22.57
2019-02-23T09:57:36.992Z,21.13
2019-02-23T10:00:08.825Z,19.40
2019-02-23T10:02:37.279Z,18.70
2019-02-23T10:05:07.016Z,18.40
2019-02-23T10:07:35.400Z,19.63
2019-02-23T10:10:04.579Z,19.30
2019-02-23T10:12:33.239Z,19.13
2019-02-23T10:15:01.770Z,23.57
2019-02-23T10:17:30.247Z,18.07
2019-02-23T10:19:58.632Z,19.20
2019-02-23T10:22:27.029Z,18.70
2019-02-23T10:24:55.777Z,18.40
2019-02-23T10:27:24.244Z,19.43
2019-02-23T10:29:52.688Z,18.63
2019-02-23T10:32:21.239Z,17.10
2019-02-23T10:34:50.031Z,18.30
2019-02-23T10:37:18.477Z,16.90
2019-02-23T10:39:46.952Z,19.40
2019-02-23T10:42:16.030Z,16.57
2019-02-23T10:44:44.429Z,17.93
2019-02-23T10:47:14.970Z,16.33
2019-02-23T10:49:43.352Z,16.50
2019-02-23T10:52:11.737Z,17.10
2019-02-23T10:54:40.197Z,17.73
2019-02-23T10:57:08.592Z,17.87
2019-02-23T10:59:37.089Z,17.50
2019-02-23T11:02:05.783Z,16.30
2019-02-23T11:04:34.174Z,16.93
2019-02-23T11:07:02.830Z,16.40
2019-02-23T11:09:32.460Z,16.97
2019-02-23T11:12:00.917Z,17.17
2019-02-23T11:14:29.422Z,17.40
2019-02-23T11:16:57.813Z,16.30
2019-02-23T11:19:26.485Z,16.67
2019-02-23T11:21:54.872Z,19.00
2019-02-23T11:24:23.339Z,16.07
2019-02-23T11:26:52.002Z,16.17
2019-02-23T11:29:20.477Z,17.40
2019-02-23T11:31:48.931Z,15.83
2019-02-23T11:34:17.481Z,15.90
2019-02-23T11:36:45.876Z,16.70
2019-02-23T11:39:14.652Z,16.77
2019-02-23T11:41:43.037Z,15.60
2019-02-23T11:44:11.421Z,16.77
2019-02-23T11:46:40.162Z,15.97
2019-02-23T11:49:08.789Z,16.07
2019-02-23T11:51:38.245Z,15.73
2019-02-23T11:54:06.814Z,16.03
2019-02-23T11:56:35.351Z,16.37
2019-02-23T11:59:03.751Z,16.53
2019-02-23T12:01:32.157Z,16.63
2019-02-23T12:04:00.579Z,16.93
2019-02-23T12:06:28.958Z,15.17
2019-02-23T12:08:57.508Z,15.33
2019-02-23T12:11:26.393Z,15.90
2019-02-23T12:13:55.433Z,15.97
2019-02-23T12:16:24.040Z,16.37
2019-02-23T12:18:52.700Z,16.37
2019-02-23T12:21:21.162Z,15.97
2019-02-23T12:23:49.584Z,15.00
2019-02-23T12:26:18.044Z,16.03
2019-02-23T12:28:46.426Z,15.20
2019-02-23T12:31:14.824Z,15.40
2019-02-23T12:33:43.853Z,15.23
2019-02-23T12:36:12.803Z,15.17
2019-02-23T12:38:41.188Z,15.00
2019-02-23T12:41:09.607Z,15.60
2019-02-23T12:43:38.315Z,16.67
2019-02-23T12:46:06.995Z,15.53
2019-02-23T12:48:35.790Z,14.57
2019-02-23T12:51:04.216Z,13.63
2019-02-23T12:53:32.639Z,13.83
2019-02-23T12:56:01.158Z,15.20
2019-02-23T12:58:29.630Z,15.60
2019-02-23T13:00:58.028Z,15.90
2019-02-23T13:03:26.408Z,14.53
2019-02-23T13:05:55.052Z,14.70
2019-02-23T13:08:23.474Z,16.40
2019-02-23T13:10:53.217Z,14.03
2019-02-23T13:13:42.151Z,15.23
2019-02-23T13:16:22.676Z,15.87
2019-02-23T13:19:13.700Z,14.23
2019-02-23T13:21:45.141Z,16.00
2019-02-23T13:24:28.181Z,14.20
2019-02-23T13:27:00.964Z,14.30
2019-02-23T13:29:49.009Z,14.63
2019-02-23T13:32:43.269Z,14.77
2019-02-23T13:35:24.131Z,14.37
2019-02-23T13:38:01.827Z,15.50
2019-02-23T13:40:39.298Z,14.77
2019-02-23T13:43:10.749Z,15.07
2019-02-23T13:45:45.193Z,14.63
2019-02-23T13:48:44.899Z,14.90
2019-02-23T13:51:51.187Z,14.83
2019-02-23T13:54:38.394Z,16.73
2019-02-23T13:57:08.209Z,15.23
2019-02-23T13:59:45.499Z,15.67
2019-02-23T14:02:35.060Z,14.00
2019-02-23T14:05:18.561Z,15.53
2019-02-23T14:08:07.950Z,15.53
2019-02-23T14:11:05.106Z,15.10
2019-02-23T14:13:48.694Z,15.00
2019-02-23T14:16:23.038Z,14.20
2019-02-23T14:18:54.740Z,15.23
2019-02-23T14:21:44.931Z,15.93
2019-02-23T14:24:25.497Z,14.77
2019-02-23T14:27:08.707Z,16.13
2019-02-23T14:29:43.253Z,16.33
2019-02-23T14:32:17.464Z,14.40
2019-02-23T14:34:54.955Z,16.07
2019-02-23T14:37:32.179Z,14.30
2019-02-23T14:40:12.634Z,14.10
2019-02-23T14:43:00.464Z,14.00
2019-02-23T14:45:34.606Z,15.17
2019-02-23T14:48:21.028Z,16.00
2019-02-23T14:51:10.736Z,13.43
2019-02-23T14:54:01.519Z,14.00
2019-02-23T14:56:38.760Z,13.33
2019-02-23T14:59:13.146Z,12.70
2019-02-23T15:01:50.281Z,12.07
2019-02-23T15:04:27.396Z,12.27
2019-02-23T15:06:58.858Z,11.70
2019-02-23T15:09:56.044Z,12.10
2019-02-23T15:12:33.547Z,12.17
2019-02-23T15:15:31.985Z,12.27
2019-02-23T15:18:09.466Z,11.17
2019-02-23T15:20:49.779Z,11.67
2019-02-23T15:23:21.241Z,13.17
2019-02-23T15:26:16.447Z,13.23
2019-02-23T15:29:00.119Z,11.93
2019-02-23T15:31:48.233Z,13.00
2019-02-23T15:34:44.077Z,12.03
2019-02-23T15:37:30.519Z,11.67
2019-02-23T15:40:10.608Z,11.47
2019-02-23T15:43:03.130Z,11.57
2019-02-23T15:45:43.655Z,12.60
2019-02-23T15:48:21.588Z,13.43
2019-02-23T15:50:50.040Z,13.37
2019-02-23T15:53:18.426Z,14.07
2019-02-23T15:55:47.129Z,13.20
2019-02-23T15:58:15.809Z,14.00
2019-02-23T16:00:44.439Z,13.07
2019-02-23T16:03:12.900Z,13.17
2019-02-23T16:05:41.308Z,12.27
2019-02-23T16:08:09.695Z,13.60
2019-02-23T16:10:38.089Z,13.67
2019-02-23T16:13:06.520Z,14.27
2019-02-23T16:15:34.965Z,12.80
2019-02-23T16:18:03.761Z,14.83
2019-02-23T16:20:32.394Z,13.90
2019-02-23T16:23:00.780Z,14.30
2019-02-23T16:25:38.013Z,13.60
2019-02-23T16:27:59.736Z,13.60
2019-02-23T16:30:28.143Z,12.97
2019-02-23T16:32:56.522Z,13.13
2019-02-23T16:35:25.182Z,12.50
2019-02-23T16:37:53.585Z,12.77
2019-02-23T16:40:22.239Z,13.37
2019-02-23T16:42:50.968Z,13.23
2019-02-23T16:45:19.353Z,14.37
2019-02-23T16:47:47.999Z,12.63
2019-02-23T16:50:17.665Z,14.37
2019-02-23T16:52:46.105Z,14.53
2019-02-23T16:55:14.490Z,13.67
2019-02-23T16:57:43.252Z,14.83
2019-02-23T17:00:11.936Z,14.87
2019-02-23T17:02:40.327Z,14.87
2019-02-23T17:05:09.265Z,13.90
2019-02-23T17:07:37.891Z,16.30
2019-02-23T17:10:07.921Z,14.43
2019-02-23T17:12:36.355Z,19.30
2019-02-23T17:15:06.309Z,15.20
2019-02-23T17:17:34.816Z,14.87
2019-02-23T17:20:03.526Z,15.23
2019-02-23T17:22:31.972Z,15.03
2019-02-23T17:25:00.481Z,13.87
2019-02-23T17:27:36.303Z,14.83
2019-02-23T17:29:59.349Z,15.63
2019-02-23T17:32:28.034Z,15.90
2019-02-23T17:34:56.437Z,15.60
2019-02-23T17:37:24.819Z,15.07
2019-02-23T17:39:53.242Z,15.13
2019-02-23T17:42:28.047Z,14.60
2019-02-23T17:44:52.324Z,14.90
2019-02-23T17:47:20.725Z,14.83
2019-02-23T17:49:49.668Z,14.20
2019-02-23T17:52:18.073Z,15.83
2019-02-23T17:54:46.456Z,15.57
2019-02-23T17:57:15.017Z,14.50
2019-02-23T17:59:43.480Z,16.47
2019-02-23T18:02:11.943Z,17.20
2019-02-23T18:04:40.653Z,125.23
2019-02-23T18:07:09.439Z,33.17
2019-02-23T18:09:37.829Z,18.47
2019-02-23T18:12:06.609Z,63.10
2019-02-23T18:14:35.024Z,172.27
2019-02-23T18:17:03.413Z,101.80
2019-02-23T18:19:31.834Z,90.40
2019-02-23T18:22:00.527Z,70.27
2019-02-23T18:24:29.219Z,23.70
2019-02-23T18:26:57.622Z,109.30
2019-02-23T18:29:26.009Z,114.53
2019-02-23T18:31:54.642Z,101.83
2019-02-23T18:34:23.057Z,39.80
2019-02-23T18:36:51.461Z,24.60
2019-02-23T18:39:20.106Z,20.50
2019-02-23T18:41:48.504Z,17.00
2019-02-23T18:44:16.910Z,20.33
2019-02-23T18:46:45.295Z,28.70
2019-02-23T18:49:14.030Z,50.63
2019-02-23T18:51:42.431Z,51.93
2019-02-23T18:54:11.095Z,23.93
2019-02-23T18:56:39.492Z,67.73
2019-02-23T18:59:07.886Z,136.63
2019-02-23T19:01:36.534Z,147.93
2019-02-23T19:04:05.024Z,62.00
2019-02-23T19:06:33.414Z,58.23
2019-02-23T19:09:02.093Z,97.47
2019-02-23T19:11:30.498Z,102.97
2019-02-23T19:13:59.250Z,20.00
2019-02-23T19:16:27.867Z,19.47
2019-02-23T19:18:56.257Z,24.53
2019-02-23T19:21:24.911Z,56.43
2019-02-23T19:23:53.726Z,28.00
2019-02-23T19:26:23.453Z,33.53
2019-02-23T19:28:51.872Z,19.73
2019-02-23T19:31:20.278Z,22.30
2019-02-23T19:33:48.761Z,52.70
2019-02-23T19:36:17.803Z,23.73
2019-02-23T19:38:46.218Z,16.50
2019-02-23T19:41:15.315Z,17.80
2019-02-23T19:43:43.715Z,18.17
2019-02-23T19:46:12.103Z,16.63
2019-02-23T19:48:40.500Z,16.03
2019-02-23T19:51:09.723Z,18.30
2019-02-23T19:53:39.460Z,18.63
2019-02-23T19:56:08.148Z,17.40
2019-02-23T19:58:37.879Z,16.80
2019-02-23T20:01:06.317Z,16.10
2019-02-23T20:03:35.128Z,17.20
2019-02-23T20:06:03.527Z,16.17
2019-02-23T20:08:31.928Z,16.67
2019-02-23T20:11:00.308Z,15.40
2019-02-23T20:13:29.085Z,16.53
2019-02-23T20:15:57.702Z,17.97
2019-02-23T20:18:26.120Z,16.90
2019-02-23T20:20:54.516Z,17.13
2019-02-23T20:23:22.903Z,17.90
2019-02-23T20:25:51.303Z,18.20
2019-02-23T20:28:19.776Z,18.03
2019-02-23T20:30:48.202Z,18.13
2019-02-23T20:33:16.758Z,17.60
2019-02-23T20:35:45.389Z,17.37
2019-02-23T20:38:13.773Z,16.10
2019-02-23T20:40:42.258Z,16.33
2019-02-23T20:43:10.751Z,17.33
2019-02-23T20:45:39.411Z,18.27
2019-02-23T20:48:07.816Z,18.43
2019-02-23T20:50:36.226Z,18.73
2019-02-23T20:53:04.743Z,17.33
2019-02-23T20:55:33.181Z,16.67
2019-02-23T20:58:01.583Z,16.83
2019-02-23T21:00:31.037Z,17.67
2019-02-23T21:02:59.444Z,17.13
2019-02-23T21:05:27.823Z,17.80
2019-02-23T21:07:56.219Z,18.37
2019-02-23T21:10:25.154Z,17.43
2019-02-23T21:12:54.037Z,17.23
2019-02-23T21:15:22.488Z,17.43
2019-02-23T21:17:51.135Z,17.70
2019-02-23T21:20:19.519Z,18.23
2019-02-23T21:22:48.169Z,17.97
2019-02-23T21:25:16.631Z,17.80
2019-02-23T21:27:45.485Z,16.97
2019-02-23T21:30:14.234Z,17.77
2019-02-23T21:32:42.916Z,17.20
2019-02-23T21:35:11.300Z,18.17
2019-02-23T21:37:39.702Z,18.53
2019-02-23T21:40:12.198Z,17.27
2019-02-23T21:42:40.828Z,18.33
2019-02-23T21:45:10.741Z,18.63
2019-02-23T21:47:39.097Z,18.67
2019-02-23T21:50:10.700Z,17.93
2019-02-23T21:52:39.116Z,18.37
2019-02-23T21:55:08.055Z,18.93
2019-02-23T21:57:36.738Z,18.53
2019-02-23T22:00:07.771Z,17.97
2019-02-23T22:02:36.181Z,17.03
2019-02-23T22:05:12.050Z,18.27
2019-02-23T22:07:36.400Z,17.90
2019-02-23T22:10:07.793Z,18.07
2019-02-23T22:12:36.190Z,19.20
2019-02-23T22:15:06.429Z,19.40
2019-02-23T22:17:35.148Z,18.27
2019-02-23T22:20:04.275Z,18.63
2019-02-23T22:22:32.929Z,18.03
2019-02-23T22:25:01.331Z,18.30
2019-02-23T22:27:31.584Z,18.03
2019-02-23T22:30:00.056Z,18.43
2019-02-23T22:32:28.674Z,18.03
2019-02-23T22:34:57.051Z,18.17
2019-02-23T22:37:25.685Z,18.87
2019-02-23T22:39:54.301Z,17.60
2019-02-23T22:42:22.698Z,19.23
2019-02-23T22:44:51.086Z,18.73
2019-02-23T22:47:19.473Z,17.70
2019-02-23T22:49:47.873Z,18.20
2019-02-23T22:52:16.351Z,19.07
2019-02-23T22:54:45.021Z,18.80
2019-02-23T22:57:13.421Z,18.33
2019-02-23T22:59:42.616Z,19.10
2019-02-23T23:02:11.282Z,18.00
2019-02-23T23:04:39.685Z,18.20
2019-02-23T23:07:08.346Z,19.00
2019-02-23T23:09:36.752Z,17.77
2019-02-23T23:12:05.348Z,18.30
2019-02-23T23:14:33.757Z,18.97
2019-02-23T23:17:02.141Z,18.93
2019-02-23T23:19:30.960Z,18.67
2019-02-23T23:21:59.353Z,16.73
2019-02-23T23:24:28.231Z,18.33
2019-02-23T23:26:56.635Z,17.90
2019-02-23T23:29:25.341Z,19.57
2019-02-23T23:31:53.731Z,17.77
2019-02-23T23:34:22.347Z,19.00
2019-02-23T23:36:50.752Z,18.53
2019-02-23T23:39:19.137Z,18.27
2019-02-23T23:41:47.535Z,18.43
2019-02-23T23:44:15.933Z,17.97
2019-02-23T23:46:44.311Z,19.40
2019-02-23T23:49:12.727Z,18.07
2019-02-23T23:51:41.108Z,18.97
2019-02-23T23:54:09.498Z,18.00
2019-02-23T23:56:38.181Z,17.83
2019-02-23T23:59:06.577Z,17.50
